CheckWX is a tool to help pilots better visualize weather data.  It is not intended as a substitute for an official pre-flight weather briefing.

17:53:10 UTC

LQTZ TAF
Tuzla International Airport
Tuzla, Bosnia and Herzegovina
TAF LQTZ 201700Z 2018/2118 27005KT CAVOK TX09/2113Z TNM03/2106Z PROB40 TEMPO 2102/2107 1200 BCFG BKN003 TEMPO 2110/2118 35012KT PROB30 TEMPO 2112/2116 3000 SHRA FEW030TCU BKN040

Feb-20@
18:00 UTC

Feb-20 @ 18:00 UTC

Feb-21@
18:00 UTC

Feb-21 @ 18:00 UTC

TAF LQTZ 201700Z 2018/2118 27005KT CAVOK TX09/2113Z TNM03/2106Z
Wind
  • 270° at 5 KTS
Cloud Levels
  • No significant clouds

Feb-21@
02:00 UTC

Feb-21 @ 02:00 UTC

Feb-21@
07:00 UTC

Feb-21 @ 07:00 UTC

PROB40 TEMPO 2102/2107 1200 BCFG BKN003

Temporary - 40% Likelihood

Temporary - 40% Likelihood during this time.

Conditions
Patches of Fog
Cloud Levels
  • Broken at 300' AGL

Feb-21@
10:00 UTC

Feb-21 @ 10:00 UTC

Feb-21@
18:00 UTC

Feb-21 @ 18:00 UTC

TEMPO 2110/2118 35012KT

Temporary

Temporary Changes expected for less than half the time period

Wind
  • 350° at 12 KTS

Feb-21@
12:00 UTC

Feb-21 @ 12:00 UTC

Feb-21@
16:00 UTC

Feb-21 @ 16:00 UTC

PROB30 TEMPO 2112/2116 3000 SHRA FEW030TCU BKN040

Temporary - 30% Likelihood

Temporary - 30% Likelihood during this time.

Conditions
Rain
Cloud Levels
  • Few at 3,000' AGL
  • Broken at 4,000' AGL